createdAt,value
2019-01-29T00:00:34.911Z,2.50
2019-01-29T00:05:38.342Z,2.41
2019-01-29T00:10:41.766Z,2.43
2019-01-29T00:15:45.251Z,2.32
2019-01-29T00:20:48.665Z,2.29
2019-01-29T00:25:52.089Z,2.25
2019-01-29T00:30:55.541Z,2.24
2019-01-29T00:35:58.999Z,2.23
2019-01-29T00:41:02.479Z,2.22
2019-01-29T00:46:06.039Z,2.26
2019-01-29T00:51:09.480Z,2.30
2019-01-29T00:56:12.914Z,2.25
2019-01-29T01:01:16.431Z,2.28
2019-01-29T01:06:19.918Z,2.26
2019-01-29T01:11:23.401Z,2.28
2019-01-29T01:16:26.872Z,2.25
2019-01-29T01:21:30.280Z,2.26
2019-01-29T01:26:33.694Z,2.22
2019-01-29T01:31:37.109Z,2.20
2019-01-29T01:36:40.543Z,2.18
2019-01-29T01:41:44.220Z,2.21
2019-01-29T01:46:47.621Z,2.27
2019-01-29T01:51:51.036Z,2.23
2019-01-29T01:56:54.460Z,2.18
2019-01-29T02:01:57.863Z,2.14
2019-01-29T02:07:01.298Z,2.16
2019-01-29T02:12:05.200Z,2.12
2019-01-29T02:17:08.609Z,2.15
2019-01-29T02:22:12.021Z,2.16
2019-01-29T02:27:15.899Z,2.15
2019-01-29T02:32:19.321Z,2.12
2019-01-29T02:37:22.745Z,2.14
2019-01-29T02:42:26.166Z,2.07
2019-01-29T02:47:29.607Z,2.14
2019-01-29T02:52:33.097Z,2.11
2019-01-29T02:57:36.552Z,2.10
2019-01-29T03:02:39.992Z,2.10
2019-01-29T03:07:43.554Z,2.05
2019-01-29T03:12:47.028Z,1.99
2019-01-29T03:17:50.677Z,1.91
2019-01-29T03:22:54.118Z,1.94
2019-01-29T03:27:57.516Z,1.93
2019-01-29T03:33:01.004Z,1.95
2019-01-29T03:38:04.909Z,1.88
2019-01-29T03:43:08.322Z,1.90
2019-01-29T03:48:11.879Z,1.84
2019-01-29T03:53:15.306Z,1.85
2019-01-29T03:58:18.719Z,1.78
2019-01-29T04:03:22.156Z,1.78
2019-01-29T04:08:25.569Z,1.76
2019-01-29T04:13:29.220Z,1.77
2019-01-29T04:18:32.636Z,1.79
2019-01-29T04:23:36.031Z,1.77
2019-01-29T04:28:39.441Z,1.79
2019-01-29T04:33:42.946Z,1.79
2019-01-29T04:38:46.349Z,1.73
2019-01-29T04:43:49.775Z,1.73
2019-01-29T04:48:53.196Z,1.77
2019-01-29T04:53:57.740Z,1.73
2019-01-29T04:59:01.402Z,1.72
2019-01-29T05:04:05.467Z,1.66
2019-01-29T05:09:09.340Z,1.70
2019-01-29T05:14:12.778Z,1.60
2019-01-29T05:19:16.203Z,1.70
2019-01-29T05:24:19.699Z,1.64
2019-01-29T05:29:23.152Z,1.66
2019-01-29T05:34:26.609Z,1.70
2019-01-29T05:39:30.001Z,1.78
2019-01-29T05:44:33.503Z,1.78
2019-01-29T05:49:37.959Z,1.76
2019-01-29T05:54:41.464Z,1.72
2019-01-29T05:59:44.887Z,1.71
2019-01-29T06:04:48.424Z,1.65
2019-01-29T06:09:51.845Z,1.60
2019-01-29T06:14:55.275Z,1.55
2019-01-29T06:19:58.773Z,1.58
2019-01-29T06:25:02.247Z,1.45
2019-01-29T06:30:12.614Z,1.51
2019-01-29T06:35:17.483Z,1.48
2019-01-29T06:40:23.050Z,1.54
2019-01-29T06:45:27.162Z,1.54
2019-01-29T06:50:30.582Z,1.51
2019-01-29T06:55:34.156Z,1.54
2019-01-29T07:00:37.665Z,1.63
2019-01-29T07:05:41.091Z,1.71
2019-01-29T07:10:44.526Z,1.61
2019-01-29T07:15:58.506Z,1.67
2019-01-29T07:21:03.993Z,1.69
2019-01-29T07:26:07.442Z,1.69
2019-01-29T07:31:10.851Z,1.72
2019-01-29T07:36:14.287Z,1.72
2019-01-29T07:41:17.872Z,1.69
2019-01-29T07:46:21.307Z,1.65
2019-01-29T07:51:24.725Z,1.64
2019-01-29T07:56:28.258Z,1.74
2019-01-29T08:01:31.792Z,1.75
2019-01-29T08:06:35.383Z,1.71
2019-01-29T08:11:38.820Z,1.75
2019-01-29T08:16:42.234Z,1.81
2019-01-29T08:21:45.731Z,1.85
2019-01-29T08:26:49.154Z,1.84
2019-01-29T08:31:52.603Z,1.93
2019-01-29T08:36:56.053Z,1.91
2019-01-29T08:41:59.485Z,1.89
2019-01-29T08:47:02.917Z,2.00
2019-01-29T08:52:06.617Z,1.96
2019-01-29T08:57:10.150Z,2.06
2019-01-29T09:02:14.229Z,2.09
2019-01-29T09:07:18.472Z,2.11
2019-01-29T09:12:22.158Z,2.22
2019-01-29T09:17:25.605Z,2.24
2019-01-29T09:22:29.021Z,2.30
2019-01-29T09:27:32.570Z,2.39
2019-01-29T09:32:36.035Z,2.47
2019-01-29T09:37:39.471Z,2.48
2019-01-29T09:42:42.913Z,2.55
2019-01-29T09:47:46.512Z,2.61
2019-01-29T09:52:50.986Z,2.68
2019-01-29T09:57:55.557Z,2.82
2019-01-29T10:02:58.998Z,2.84
2019-01-29T10:08:02.711Z,2.84
2019-01-29T10:13:06.448Z,2.95
2019-01-29T10:18:09.940Z,3.05
2019-01-29T10:23:13.370Z,3.18
2019-01-29T10:28:16.813Z,3.30
2019-01-29T10:33:20.335Z,3.40
2019-01-29T10:38:23.766Z,3.46
2019-01-29T10:43:27.202Z,3.46
2019-01-29T10:48:30.664Z,3.53
2019-01-29T10:53:34.095Z,3.57
2019-01-29T10:58:37.556Z,3.62
2019-01-29T11:03:41.018Z,3.64
2019-01-29T11:08:44.450Z,3.64
2019-01-29T11:13:47.889Z,3.64
2019-01-29T11:18:51.388Z,3.70
2019-01-29T11:23:54.937Z,3.81
2019-01-29T11:28:58.650Z,3.94
2019-01-29T11:34:02.099Z,3.99
2019-01-29T11:39:08.134Z,3.97
2019-01-29T11:44:11.609Z,4.07
2019-01-29T11:49:15.036Z,4.06
2019-01-29T11:54:18.478Z,4.13
2019-01-29T11:59:21.922Z,4.24
2019-01-29T12:04:25.369Z,4.39
2019-01-29T12:09:28.811Z,4.51
2019-01-29T12:14:32.273Z,4.66
2019-01-29T12:19:35.786Z,4.65
2019-01-29T12:24:39.328Z,4.66
2019-01-29T12:29:42.776Z,4.74
2019-01-29T12:34:46.196Z,4.94
2019-01-29T12:39:49.625Z,4.92
2019-01-29T12:44:53.438Z,4.82
2019-01-29T12:49:56.851Z,4.92
2019-01-29T12:55:00.426Z,5.01
2019-01-29T13:00:06.127Z,5.14
2019-01-29T13:05:12.197Z,5.34
2019-01-29T13:10:22.355Z,5.21
2019-01-29T13:15:30.572Z,5.21
2019-01-29T13:20:34.101Z,5.17
2019-01-29T13:25:37.544Z,4.94
2019-01-29T13:30:40.971Z,5.13
2019-01-29T13:35:45.501Z,5.17
2019-01-29T13:40:49.241Z,4.95
2019-01-29T13:45:52.734Z,5.00
2019-01-29T13:50:58.072Z,4.90
2019-01-29T13:56:01.512Z,4.77
2019-01-29T14:01:05.722Z,4.58
2019-01-29T14:06:09.155Z,4.62
2019-01-29T14:11:12.774Z,4.69
2019-01-29T14:16:16.166Z,4.70
2019-01-29T14:21:19.589Z,4.76
2019-01-29T14:26:23.020Z,4.82
2019-01-29T14:31:26.435Z,4.71
2019-01-29T14:36:29.948Z,4.71
2019-01-29T14:41:33.419Z,4.63
2019-01-29T14:46:36.905Z,4.57
2019-01-29T14:51:40.531Z,4.65
2019-01-29T14:56:44.406Z,4.63
2019-01-29T15:01:47.926Z,4.55
2019-01-29T15:06:51.370Z,4.51
2019-01-29T15:11:54.810Z,4.47
2019-01-29T15:16:59.865Z,4.46
2019-01-29T15:22:03.725Z,4.36
2019-01-29T15:27:07.357Z,4.36
2019-01-29T15:32:11.032Z,4.28
2019-01-29T15:37:14.459Z,4.20
2019-01-29T15:42:17.960Z,4.05
2019-01-29T15:47:21.374Z,3.87
2019-01-29T15:52:24.954Z,3.67
2019-01-29T15:57:28.361Z,3.59
2019-01-29T16:02:31.793Z,3.52
2019-01-29T16:07:35.236Z,3.42
2019-01-29T16:12:38.658Z,3.19
2019-01-29T16:17:42.058Z,3.15
2019-01-29T16:22:45.477Z,3.04
2019-01-29T16:27:50.257Z,2.97
2019-01-29T16:32:53.851Z,2.70
2019-01-29T16:37:57.490Z,2.70
2019-01-29T16:43:01.253Z,2.54
2019-01-29T16:48:09.179Z,2.45
2019-01-29T16:53:12.646Z,2.24
2019-01-29T16:58:16.063Z,2.20
2019-01-29T17:03:20.435Z,2.22
2019-01-29T17:08:23.925Z,2.11
2019-01-29T17:13:27.407Z,2.05
2019-01-29T17:18:30.922Z,1.95
2019-01-29T17:23:34.393Z,1.97
2019-01-29T17:28:37.814Z,1.91
2019-01-29T17:33:41.237Z,1.88
2019-01-29T17:38:45.047Z,1.76
2019-01-29T17:43:48.434Z,1.77
2019-01-29T17:48:51.844Z,1.66
2019-01-29T17:53:55.256Z,1.63
2019-01-29T17:58:58.669Z,1.56
2019-01-29T18:04:02.063Z,1.56
2019-01-29T18:09:08.659Z,1.54
2019-01-29T18:14:12.134Z,1.47
2019-01-29T18:19:15.659Z,1.45
2019-01-29T18:24:19.164Z,1.40
2019-01-29T18:29:22.577Z,1.35
2019-01-29T18:34:26.003Z,1.28
2019-01-29T18:39:29.406Z,1.29
2019-01-29T18:44:32.898Z,1.26
2019-01-29T18:49:36.318Z,1.28
2019-01-29T18:54:39.740Z,1.24
2019-01-29T18:59:43.168Z,1.23
2019-01-29T19:04:46.582Z,1.25
2019-01-29T19:09:50.010Z,1.16
2019-01-29T19:14:53.527Z,1.28
2019-01-29T19:19:56.938Z,1.25
2019-01-29T19:25:00.349Z,1.35
2019-01-29T19:30:07.077Z,1.42
2019-01-29T19:35:10.957Z,1.21
2019-01-29T19:40:16.230Z,1.10
2019-01-29T19:45:22.458Z,1.23
2019-01-29T19:50:28.339Z,1.23
2019-01-29T19:55:31.893Z,1.22
2019-01-29T20:00:40.890Z,1.18
2019-01-29T20:05:45.316Z,1.07
2019-01-29T20:10:48.811Z,0.97
2019-01-29T20:15:52.352Z,0.99
2019-01-29T20:20:56.918Z,0.96
2019-01-29T20:26:00.547Z,0.98
2019-01-29T20:31:04.043Z,0.81
2019-01-29T20:36:07.547Z,0.68
2019-01-29T20:41:10.975Z,0.66
2019-01-29T20:46:14.394Z,0.67
2019-01-29T20:51:17.874Z,0.61
2019-01-29T20:56:21.636Z,0.59
2019-01-29T21:01:25.083Z,0.54
2019-01-29T21:06:28.500Z,0.60
2019-01-29T21:11:32.381Z,0.66
2019-01-29T21:16:35.810Z,0.60
2019-01-29T21:21:39.221Z,0.50
2019-01-29T21:26:44.000Z,0.43
2019-01-29T21:31:47.719Z,0.45
2019-01-29T21:36:51.129Z,0.41
2019-01-29T21:41:54.714Z,0.40
2019-01-29T21:46:58.178Z,0.38
2019-01-29T21:52:01.604Z,0.37
2019-01-29T21:57:05.337Z,0.37
2019-01-29T22:02:08.778Z,0.31
2019-01-29T22:07:12.218Z,0.29
2019-01-29T22:12:15.765Z,0.29
2019-01-29T22:17:19.165Z,0.33
2019-01-29T22:22:22.653Z,0.36
2019-01-29T22:27:27.353Z,0.33
2019-01-29T22:32:30.857Z,0.37
2019-01-29T22:37:34.277Z,0.34
2019-01-29T22:42:37.755Z,0.30
2019-01-29T22:47:41.289Z,0.33
2019-01-29T22:52:44.850Z,0.25
2019-01-29T22:57:48.269Z,0.25
2019-01-29T23:02:51.700Z,0.32
2019-01-29T23:07:55.111Z,0.28
2019-01-29T23:12:58.545Z,0.25
2019-01-29T23:18:02.023Z,0.24
2019-01-29T23:23:05.503Z,0.19
2019-01-29T23:28:08.920Z,0.17
2019-01-29T23:33:12.422Z,0.22
2019-01-29T23:38:15.904Z,0.14
2019-01-29T23:43:19.344Z,0.17
2019-01-29T23:48:22.760Z,0.20
2019-01-29T23:53:26.251Z,0.17
2019-01-29T23:58:29.656Z,0.14
